CheckWX is a tool to help pilots better visualize weather data.  It is not intended as a substitute for an official pre-flight weather briefing.

12:18:44 UTC

GMMW METAR
Nador International Airport
Nador, Morocco
Current

1 hour ago

GMMW 181100Z 11005KT 070V140 CAVOK 17/M02 Q1017 NOSIG
Observed
Feb-18 @ 11:00 UTC
Wind
  • 110° at 5 KTS
Visibility
10,000+ meters
Flight Rules
VFR
Cloud Levels
  • Clear skies
Temperature
17°C / 63°F
Dewpoint
-2°C / 28°F
Humidity
27%
Altimeter
30.03" Hg
Pressure
1016.92 hPa
Previous

2 hours ago

GMMW 181000Z VRB02KT 8000 NSC 13/06 Q1017 NOSIG
Observed
Feb-18 @ 10:00 UTC
Wind
  • Variable at 2 KTS
Visibility
7,998 meters
Flight Rules
MVFR
Cloud Levels
  • Clear skies
Temperature
13°C / 55°F
Dewpoint
C / 43°F
Humidity
63%
Altimeter
30.03" Hg
Pressure
1016.92 hPa
Previous

3 hours ago

GMMW 180900Z VRB01KT 6000 NSC 09/08 Q1017 NOSIG
Observed
Feb-18 @ 09:00 UTC
Wind
  • Variable at 1 KTS
Visibility
6,003 meters
Flight Rules
MVFR
Cloud Levels
  • Clear skies
Temperature
C / 48°F
Dewpoint
C / 46°F
Humidity
94%
Altimeter
30.03" Hg
Pressure
1016.92 hPa